createdAt,value
2022-10-26T00:01:07.739Z,85.77
2022-10-26T00:03:36.246Z,84.74
2022-10-26T00:06:14.555Z,88.34
2022-10-26T00:08:42.587Z,90.83
2022-10-26T00:11:10.223Z,90.44
2022-10-26T00:13:38.570Z,91.86
2022-10-26T00:16:23.463Z,95.63
2022-10-26T00:18:51.123Z,97.19
2022-10-26T00:21:19.155Z,98.09
2022-10-26T00:23:46.594Z,99.04
2022-10-26T00:26:13.965Z,98.46
2022-10-26T00:28:41.683Z,99.99
2022-10-26T00:31:12.999Z,100.00
2022-10-26T00:33:40.329Z,100.00
2022-10-26T00:36:10.037Z,97.01
2022-10-26T00:38:37.968Z,93.16
2022-10-26T00:41:05.700Z,92.85
2022-10-26T00:43:38.561Z,90.84
2022-10-26T00:46:08.855Z,87.86
2022-10-26T00:48:39.493Z,88.81
2022-10-26T00:51:09.872Z,87.94
2022-10-26T00:53:37.901Z,89.96
2022-10-26T00:56:05.545Z,90.92
2022-10-26T00:58:33.052Z,89.59
2022-10-26T01:01:00.695Z,89.56
2022-10-26T01:03:28.387Z,88.90
2022-10-26T01:05:57.274Z,86.16
2022-10-26T01:08:26.364Z,90.94
2022-10-26T01:10:53.973Z,90.12
2022-10-26T01:13:21.486Z,86.84
2022-10-26T01:15:57.003Z,81.43
2022-10-26T01:18:35.526Z,79.64
2022-10-26T01:21:21.434Z,81.36
2022-10-26T01:24:19.836Z,87.49
2022-10-26T01:26:56.401Z,87.71
2022-10-26T01:29:35.543Z,89.86
2022-10-26T01:32:07.891Z,88.43
2022-10-26T01:34:45.207Z,90.68
2022-10-26T01:37:16.650Z,89.74
2022-10-26T01:39:52.629Z,84.50
2022-10-26T01:42:21.851Z,83.16
2022-10-26T01:44:53.528Z,87.93
2022-10-26T01:47:21.584Z,89.07
2022-10-26T01:49:53.871Z,90.37
2022-10-26T01:52:21.988Z,92.63
2022-10-26T01:54:49.337Z,92.26
2022-10-26T01:57:19.450Z,92.96
2022-10-26T02:00:11.315Z,93.14
2022-10-26T02:02:48.100Z,93.14
2022-10-26T02:05:35.617Z,92.51
2022-10-26T02:08:24.362Z,90.91
2022-10-26T02:11:16.062Z,91.10
2022-10-26T02:14:17.395Z,91.27
2022-10-26T02:16:58.725Z,91.00
2022-10-26T02:19:48.194Z,91.47
2022-10-26T02:22:19.599Z,90.62
2022-10-26T02:24:48.278Z,89.85
2022-10-26T02:27:18.909Z,90.77
2022-10-26T02:29:47.676Z,91.97
2022-10-26T02:32:15.988Z,93.44
2022-10-26T02:34:45.208Z,94.74
2022-10-26T02:37:14.156Z,94.56
2022-10-26T02:39:41.990Z,94.70
2022-10-26T02:42:09.737Z,94.43
2022-10-26T02:44:44.949Z,93.63
2022-10-26T02:47:12.171Z,93.82
2022-10-26T02:49:39.830Z,94.56
2022-10-26T02:52:16.419Z,96.30
2022-10-26T02:54:51.668Z,97.70
2022-10-26T02:57:29.763Z,98.09
2022-10-26T02:59:57.992Z,98.64
2022-10-26T03:02:25.707Z,99.51
2022-10-26T03:04:53.370Z,99.30
2022-10-26T03:07:22.935Z,100.00
2022-10-26T03:09:50.679Z,99.47
2022-10-26T03:12:18.265Z,99.40
2022-10-26T03:14:46.396Z,98.96
2022-10-26T03:17:13.720Z,98.25
2022-10-26T03:19:41.217Z,96.94
2022-10-26T03:22:08.802Z,98.03
2022-10-26T03:24:36.204Z,98.91
2022-10-26T03:27:03.622Z,99.04
2022-10-26T03:29:31.261Z,99.78
2022-10-26T03:31:58.697Z,98.25
2022-10-26T03:34:26.039Z,98.83
2022-10-26T03:36:53.623Z,99.32
2022-10-26T03:39:20.939Z,100.00
2022-10-26T03:41:48.314Z,99.95
2022-10-26T03:44:16.013Z,100.00
2022-10-26T03:46:43.355Z,98.63
2022-10-26T03:49:10.703Z,98.11
2022-10-26T03:51:38.585Z,98.22
2022-10-26T03:54:06.598Z,100.00
2022-10-26T03:56:33.956Z,100.00
2022-10-26T03:59:01.530Z,100.00
2022-10-26T04:01:28.895Z,100.00
2022-10-26T04:03:56.601Z,100.00
2022-10-26T04:06:23.977Z,100.00
2022-10-26T04:08:51.841Z,100.00
2022-10-26T04:11:19.483Z,100.00
2022-10-26T04:13:48.071Z,100.00
2022-10-26T04:16:15.401Z,100.00
2022-10-26T04:18:43.082Z,100.00
2022-10-26T04:21:10.422Z,100.00
2022-10-26T04:23:37.867Z,100.00
2022-10-26T04:26:06.286Z,100.00
2022-10-26T04:28:33.677Z,100.00
2022-10-26T04:31:01.005Z,100.00
2022-10-26T04:33:28.592Z,100.00
2022-10-26T04:36:01.089Z,100.00
2022-10-26T04:38:28.884Z,100.00
2022-10-26T04:40:56.216Z,100.00
2022-10-26T04:43:23.551Z,100.00
2022-10-26T04:45:55.122Z,100.00
2022-10-26T04:51:00.414Z,100.00
2022-10-26T04:53:27.962Z,100.00
2022-10-26T04:56:01.436Z,99.41
2022-10-26T04:58:29.278Z,99.03
2022-10-26T05:00:56.678Z,98.91
2022-10-26T05:03:24.069Z,97.85
2022-10-26T05:05:52.089Z,97.84
2022-10-26T05:08:19.451Z,95.60
2022-10-26T05:10:50.496Z,94.49
2022-10-26T05:13:18.188Z,93.77
2022-10-26T05:15:45.567Z,92.44
2022-10-26T05:18:12.903Z,88.72
2022-10-26T05:20:40.516Z,88.17
2022-10-26T05:23:11.728Z,88.24
2022-10-26T05:25:39.212Z,87.90
2022-10-26T05:28:09.652Z,87.79
2022-10-26T05:30:37.541Z,86.88
2022-10-26T05:33:05.124Z,86.07
2022-10-26T05:35:33.326Z,84.03
2022-10-26T05:38:00.730Z,84.85
2022-10-26T05:40:28.082Z,84.53
2022-10-26T05:43:00.132Z,82.86
2022-10-26T05:45:27.657Z,82.20
2022-10-26T05:47:58.732Z,83.49
2022-10-26T05:50:30.187Z,83.63
2022-10-26T05:52:57.959Z,81.98
2022-10-26T05:55:25.637Z,81.53
2022-10-26T05:57:53.296Z,82.22
2022-10-26T06:00:23.424Z,86.92
2022-10-26T06:03:24.603Z,89.13
2022-10-26T06:05:54.410Z,89.13
2022-10-26T06:08:24.666Z,88.58
2022-10-26T06:10:53.880Z,87.05
2022-10-26T06:13:22.052Z,88.41
2022-10-26T06:16:07.461Z,86.58
2022-10-26T06:18:55.328Z,85.46
2022-10-26T06:21:51.612Z,84.09
2022-10-26T06:24:27.552Z,84.17
2022-10-26T06:27:19.443Z,83.66
2022-10-26T06:30:01.098Z,80.81
2022-10-26T06:32:28.943Z,80.75
2022-10-26T06:35:22.410Z,81.18
2022-10-26T06:37:50.626Z,80.19
2022-10-26T06:40:18.811Z,80.35
2022-10-26T06:42:46.487Z,81.42
2022-10-26T06:45:15.732Z,78.88
2022-10-26T06:47:50.163Z,79.80
2022-10-26T06:50:36.968Z,81.00
2022-10-26T06:53:42.357Z,80.57
2022-10-26T06:56:11.398Z,80.97
2022-10-26T06:58:39.903Z,80.01
2022-10-26T07:01:08.261Z,80.83
2022-10-26T07:03:36.030Z,80.14
2022-10-26T07:06:03.802Z,80.36
2022-10-26T07:08:32.205Z,79.86
2022-10-26T07:10:59.866Z,80.48
2022-10-26T07:13:27.338Z,80.52
2022-10-26T07:15:54.995Z,80.71
2022-10-26T07:18:22.665Z,79.87
2022-10-26T07:20:50.033Z,80.54
2022-10-26T07:23:17.464Z,80.54
2022-10-26T07:25:45.162Z,80.75
2022-10-26T07:28:12.688Z,80.63
2022-10-26T07:30:40.409Z,80.12
2022-10-26T07:33:10.924Z,80.32
2022-10-26T07:35:38.594Z,80.93
2022-10-26T07:38:06.105Z,81.19
2022-10-26T07:40:34.167Z,81.98
2022-10-26T07:43:01.560Z,81.20
2022-10-26T07:45:29.541Z,81.92
2022-10-26T07:47:57.590Z,82.56
2022-10-26T07:50:25.255Z,81.72
2022-10-26T07:52:52.904Z,82.35
2022-10-26T07:55:20.847Z,81.57
2022-10-26T07:57:51.038Z,83.17
2022-10-26T08:00:22.640Z,83.17
2022-10-26T08:02:50.342Z,82.73
2022-10-26T08:05:18.090Z,82.07
2022-10-26T08:07:45.731Z,81.29
2022-10-26T08:10:14.727Z,81.12
2022-10-26T08:12:43.261Z,79.95
2022-10-26T08:15:10.769Z,80.46
2022-10-26T08:17:38.433Z,79.18
2022-10-26T08:20:06.473Z,78.67
2022-10-26T08:22:33.939Z,78.01
2022-10-26T08:25:01.689Z,78.66
2022-10-26T08:27:29.325Z,78.73
2022-10-26T08:29:56.696Z,78.66
2022-10-26T08:32:24.310Z,77.17
2022-10-26T08:34:51.685Z,77.44
2022-10-26T08:37:19.030Z,77.22
2022-10-26T08:39:49.210Z,75.59
2022-10-26T08:42:42.760Z,76.89
2022-10-26T08:45:35.719Z,78.54
2022-10-26T08:48:14.212Z,77.31
2022-10-26T08:50:50.000Z,77.38
2022-10-26T08:53:23.756Z,79.68
2022-10-26T08:55:55.443Z,81.65
2022-10-26T08:58:28.565Z,85.12
2022-10-26T09:00:56.202Z,86.40
2022-10-26T09:03:24.617Z,87.45
2022-10-26T09:05:58.547Z,86.81
2022-10-26T09:08:36.836Z,86.97
2022-10-26T09:11:08.709Z,86.26
2022-10-26T09:13:42.480Z,87.18
2022-10-26T09:16:32.072Z,87.89
2022-10-26T09:19:16.232Z,86.46
2022-10-26T09:21:50.058Z,84.07
2022-10-26T09:24:47.150Z,81.21
2022-10-26T09:27:21.713Z,79.05
2022-10-26T09:29:49.952Z,84.93
2022-10-26T09:32:19.264Z,83.40
2022-10-26T09:34:50.105Z,85.04
2022-10-26T09:37:22.570Z,80.81
2022-10-26T09:39:56.199Z,80.67
2022-10-26T09:42:49.862Z,82.63
2022-10-26T09:45:22.550Z,82.23
2022-10-26T09:47:55.087Z,83.43
2022-10-26T09:50:38.700Z,82.23
2022-10-26T09:53:06.511Z,84.33
2022-10-26T09:55:39.604Z,84.88
2022-10-26T09:58:14.499Z,86.92
2022-10-26T10:00:42.557Z,86.94
2022-10-26T10:03:21.828Z,85.34
2022-10-26T10:05:52.119Z,84.76
2022-10-26T10:08:25.829Z,84.58
2022-10-26T10:11:11.194Z,83.56
2022-10-26T10:13:40.885Z,81.88
2022-10-26T10:16:22.708Z,83.44
2022-10-26T10:18:55.496Z,84.57
2022-10-26T10:21:45.643Z,85.39
2022-10-26T10:24:28.131Z,86.29
2022-10-26T10:27:16.457Z,85.00
2022-10-26T10:29:49.916Z,82.58
2022-10-26T10:32:22.844Z,82.84
2022-10-26T10:34:52.157Z,81.71
2022-10-26T10:37:22.453Z,79.91
2022-10-26T10:39:50.233Z,82.48
2022-10-26T10:42:21.546Z,82.96
2022-10-26T10:44:54.510Z,82.75
2022-10-26T10:47:27.756Z,81.88
2022-10-26T10:50:11.907Z,82.23
2022-10-26T10:52:40.098Z,81.27
2022-10-26T10:55:16.461Z,81.94
2022-10-26T10:57:53.329Z,80.80
2022-10-26T11:00:21.131Z,81.35
2022-10-26T11:02:54.741Z,81.73
2022-10-26T11:05:56.264Z,81.50
2022-10-26T11:08:56.154Z,81.40
2022-10-26T11:11:29.082Z,80.17
2022-10-26T11:14:15.420Z,82.50
2022-10-26T11:17:03.756Z,81.41
2022-10-26T11:19:36.437Z,82.48
2022-10-26T11:22:05.991Z,81.20
2022-10-26T11:25:01.893Z,78.42
2022-10-26T11:27:30.311Z,81.74
2022-10-26T11:30:03.834Z,81.15
2022-10-26T11:32:42.591Z,80.65
2022-10-26T11:35:29.211Z,82.20
2022-10-26T11:38:09.859Z,81.43
2022-10-26T11:40:48.281Z,80.61
2022-10-26T11:43:24.726Z,79.85
2022-10-26T11:46:09.859Z,78.09
2022-10-26T11:48:44.748Z,77.65
2022-10-26T11:51:18.665Z,76.02
2022-10-26T11:53:46.871Z,73.61
2022-10-26T11:56:25.439Z,74.71
2022-10-26T11:58:53.634Z,72.50
2022-10-26T12:01:21.777Z,69.37
2022-10-26T12:03:51.213Z,67.23
2022-10-26T12:06:25.828Z,67.58
2022-10-26T12:09:17.942Z,69.49
2022-10-26T12:11:51.517Z,68.23
2022-10-26T12:14:29.033Z,67.03
2022-10-26T12:17:16.381Z,67.32
2022-10-26T12:19:50.767Z,68.56
2022-10-26T12:22:19.317Z,69.32
2022-10-26T12:25:05.487Z,70.02
2022-10-26T12:27:54.376Z,70.45
2022-10-26T12:30:22.133Z,70.55
2022-10-26T12:32:54.188Z,69.45
2022-10-26T12:35:35.846Z,70.49
2022-10-26T12:38:29.017Z,72.36
2022-10-26T12:41:08.576Z,73.40
2022-10-26T12:43:40.483Z,73.25
2022-10-26T12:46:14.330Z,72.85
2022-10-26T12:48:42.603Z,69.65
2022-10-26T12:51:22.465Z,67.84
2022-10-26T12:54:41.904Z,68.34
2022-10-26T12:57:32.119Z,71.74
2022-10-26T13:00:05.941Z,71.46
2022-10-26T13:02:55.300Z,72.21
2022-10-26T13:05:57.138Z,72.71
2022-10-26T13:08:25.028Z,73.12
2022-10-26T13:11:04.560Z,73.02
2022-10-26T13:13:33.461Z,71.43
2022-10-26T13:16:01.718Z,72.14
2022-10-26T13:18:29.690Z,73.23
2022-10-26T13:21:08.198Z,73.16
2022-10-26T13:23:40.164Z,71.96
2022-10-26T13:26:13.642Z,73.94
2022-10-26T13:28:40.904Z,72.87
2022-10-26T13:31:33.104Z,68.24
2022-10-26T13:34:21.236Z,65.74
2022-10-26T13:36:53.675Z,67.90
2022-10-26T13:39:33.173Z,67.98
2022-10-26T13:42:01.050Z,69.48
2022-10-26T13:44:46.022Z,67.79
2022-10-26T13:47:24.316Z,68.56
2022-10-26T13:49:54.748Z,67.72
2022-10-26T13:52:34.217Z,66.55
2022-10-26T13:55:38.294Z,66.57
2022-10-26T13:58:05.829Z,67.00
2022-10-26T14:00:33.386Z,67.94
2022-10-26T14:03:12.826Z,67.01
2022-10-26T14:05:46.625Z,67.49
2022-10-26T14:08:17.684Z,67.98
2022-10-26T14:10:53.657Z,68.25
2022-10-26T14:13:25.223Z,67.86
2022-10-26T14:15:53.462Z,69.78
2022-10-26T14:18:25.870Z,71.10
2022-10-26T14:21:05.387Z,70.18
2022-10-26T14:23:47.926Z,70.34
2022-10-26T14:26:23.923Z,69.42
2022-10-26T14:28:57.801Z,67.75
2022-10-26T14:31:27.992Z,66.63
2022-10-26T14:33:56.959Z,65.80
2022-10-26T14:36:29.903Z,65.58
2022-10-26T14:39:02.565Z,70.04
2022-10-26T14:41:30.544Z,68.66
2022-10-26T14:43:59.333Z,68.62
2022-10-26T14:46:27.560Z,67.77
2022-10-26T14:48:59.498Z,67.46
2022-10-26T14:51:29.246Z,68.31
2022-10-26T14:53:58.453Z,69.87
2022-10-26T14:56:37.087Z,70.07
2022-10-26T14:59:31.558Z,68.91
2022-10-26T15:01:59.954Z,71.53
2022-10-26T15:04:31.485Z,70.27
2022-10-26T15:07:16.070Z,71.04
2022-10-26T15:09:47.537Z,71.76
2022-10-26T15:12:35.536Z,74.04
2022-10-26T15:15:15.384Z,74.03
2022-10-26T15:17:49.792Z,73.08
2022-10-26T15:20:25.162Z,72.23
2022-10-26T15:22:54.634Z,72.28
2022-10-26T15:25:25.037Z,71.49
2022-10-26T15:27:53.050Z,72.39
2022-10-26T15:30:26.134Z,71.17
2022-10-26T15:32:54.906Z,70.69
2022-10-26T15:35:30.440Z,70.63
2022-10-26T15:37:58.979Z,70.53
2022-10-26T15:40:26.849Z,70.56
2022-10-26T15:42:55.153Z,70.58
2022-10-26T15:45:27.590Z,70.49
2022-10-26T15:47:57.257Z,71.84
2022-10-26T15:50:27.999Z,72.15
2022-10-26T15:53:10.986Z,72.83
2022-10-26T15:55:38.613Z,72.74
2022-10-26T15:58:06.000Z,71.91
2022-10-26T16:00:33.341Z,71.94
2022-10-26T16:03:02.649Z,71.85
2022-10-26T16:08:02.598Z,73.17
2022-10-26T16:10:30.225Z,71.80
2022-10-26T16:12:59.430Z,71.58
2022-10-26T16:15:27.138Z,71.09
2022-10-26T16:17:54.714Z,72.14
2022-10-26T16:20:24.822Z,72.00
2022-10-26T16:22:53.284Z,72.10
2022-10-26T16:25:25.734Z,72.47
2022-10-26T16:27:55.040Z,72.07
2022-10-26T16:30:25.839Z,70.06
2022-10-26T16:32:55.950Z,71.50
2022-10-26T16:35:23.326Z,71.93
2022-10-26T16:37:50.706Z,71.62
2022-10-26T16:40:18.371Z,71.41
2022-10-26T16:42:46.614Z,71.79
2022-10-26T16:45:15.505Z,72.00
2022-10-26T16:47:43.305Z,72.45
2022-10-26T16:50:12.157Z,71.62
2022-10-26T16:52:39.617Z,72.67
2022-10-26T16:55:08.663Z,73.05
2022-10-26T16:57:36.812Z,73.19
2022-10-26T17:00:06.283Z,73.35
2022-10-26T17:02:34.009Z,73.89
2022-10-26T17:05:04.378Z,75.45
2022-10-26T17:07:35.207Z,74.08
2022-10-26T17:10:03.039Z,74.77
2022-10-26T17:12:31.344Z,75.44
2022-10-26T17:15:00.832Z,76.56
2022-10-26T17:17:29.754Z,76.04
2022-10-26T17:19:58.650Z,75.24
2022-10-26T17:22:26.366Z,74.82
2022-10-26T17:24:54.126Z,75.45
2022-10-26T17:27:23.388Z,75.44
2022-10-26T17:29:51.526Z,74.70
2022-10-26T17:32:19.377Z,74.97
2022-10-26T17:34:47.619Z,75.61
2022-10-26T17:37:15.827Z,76.71
2022-10-26T17:39:43.674Z,78.60
2022-10-26T17:42:11.431Z,79.81
2022-10-26T17:44:39.805Z,80.78
2022-10-26T17:47:07.823Z,80.85
2022-10-26T17:49:36.358Z,84.17
2022-10-26T17:52:06.348Z,87.83
2022-10-26T17:54:33.898Z,88.08
2022-10-26T17:57:01.770Z,86.82
2022-10-26T17:59:30.120Z,85.46
2022-10-26T18:01:58.259Z,86.17
2022-10-26T18:04:26.631Z,85.32
2022-10-26T18:06:54.599Z,79.97
2022-10-26T18:09:22.692Z,76.56
2022-10-26T18:11:53.518Z,79.51
2022-10-26T18:14:23.925Z,79.29
2022-10-26T18:16:52.172Z,78.59
2022-10-26T18:19:20.752Z,82.17
2022-10-26T18:21:48.862Z,84.80
2022-10-26T18:24:16.951Z,84.00
2022-10-26T18:26:45.051Z,84.67
2022-10-26T18:29:14.524Z,83.85
2022-10-26T18:31:44.519Z,83.98
2022-10-26T18:34:12.749Z,83.96
2022-10-26T18:36:41.087Z,81.51
2022-10-26T18:39:09.609Z,77.07
2022-10-26T18:41:37.648Z,75.05
2022-10-26T18:44:07.025Z,73.90
2022-10-26T18:46:39.792Z,75.37
2022-10-26T18:49:07.555Z,84.76
2022-10-26T18:51:36.012Z,85.12
2022-10-26T18:54:04.181Z,85.58
2022-10-26T18:56:32.520Z,86.46
2022-10-26T18:59:00.865Z,83.84
2022-10-26T19:01:34.194Z,87.02
2022-10-26T19:04:07.003Z,84.46
2022-10-26T19:06:36.730Z,83.46
2022-10-26T19:09:05.946Z,83.76
2022-10-26T19:11:34.879Z,87.53
2022-10-26T19:14:03.134Z,88.91
2022-10-26T19:16:45.039Z,85.99
2022-10-26T19:19:14.650Z,88.62
2022-10-26T19:21:42.847Z,88.02
2022-10-26T19:24:19.545Z,90.07
2022-10-26T19:26:51.244Z,92.30
2022-10-26T19:29:20.006Z,93.53
2022-10-26T19:31:51.334Z,93.70
2022-10-26T19:34:19.423Z,91.33
2022-10-26T19:36:48.529Z,92.87
2022-10-26T19:39:18.369Z,91.13
2022-10-26T19:41:47.112Z,91.22
2022-10-26T19:44:16.177Z,92.72
2022-10-26T19:46:45.831Z,91.59
2022-10-26T19:49:14.102Z,91.42
2022-10-26T19:51:41.588Z,92.87
2022-10-26T19:54:10.025Z,91.66
2022-10-26T19:56:38.434Z,91.61
2022-10-26T19:59:07.938Z,90.40
2022-10-26T20:01:40.758Z,90.48
2022-10-26T20:04:09.067Z,93.11
2022-10-26T20:06:37.361Z,93.14
2022-10-26T20:09:05.400Z,93.84
2022-10-26T20:11:36.455Z,95.10
2022-10-26T20:14:05.951Z,95.36
2022-10-26T20:16:34.384Z,94.75
2022-10-26T20:19:02.651Z,96.29
2022-10-26T20:21:32.413Z,95.65
2022-10-26T20:24:09.799Z,98.02
2022-10-26T20:26:38.959Z,93.95
2022-10-26T20:29:09.142Z,90.61
2022-10-26T20:31:37.341Z,84.76
2022-10-26T20:34:05.058Z,87.62
2022-10-26T20:36:33.100Z,86.25
2022-10-26T20:39:01.265Z,90.53
2022-10-26T20:41:29.186Z,89.60
2022-10-26T20:43:58.287Z,88.76
2022-10-26T20:46:27.369Z,87.83
2022-10-26T20:48:55.819Z,88.30
2022-10-26T20:51:47.824Z,87.63
2022-10-26T20:54:38.130Z,88.76
2022-10-26T20:57:07.696Z,84.42
2022-10-26T20:59:43.864Z,83.51
2022-10-26T21:02:12.054Z,85.88
2022-10-26T21:04:39.425Z,90.99
2022-10-26T21:07:07.056Z,94.10
2022-10-26T21:09:36.664Z,95.83
2022-10-26T21:12:04.660Z,96.76
2022-10-26T21:14:35.846Z,95.91
2022-10-26T21:17:03.503Z,96.58
2022-10-26T21:19:31.047Z,89.54
2022-10-26T21:21:58.460Z,83.59
2022-10-26T21:24:26.137Z,82.20
2022-10-26T21:26:53.561Z,84.51
2022-10-26T21:29:20.950Z,83.42
2022-10-26T21:31:48.741Z,81.46
2022-10-26T21:34:16.078Z,81.63
2022-10-26T21:36:43.651Z,82.97
2022-10-26T21:39:11.273Z,87.33
2022-10-26T21:41:38.774Z,89.08
2022-10-26T21:44:09.133Z,84.47
2022-10-26T21:46:38.725Z,83.78
2022-10-26T21:49:06.427Z,85.00
2022-10-26T21:51:35.052Z,80.36
2022-10-26T21:54:03.784Z,84.53
2022-10-26T21:56:31.242Z,82.98
2022-10-26T21:59:00.353Z,80.16
2022-10-26T22:01:28.064Z,79.41
2022-10-26T22:03:56.216Z,84.48
2022-10-26T22:06:23.563Z,86.25
2022-10-26T22:08:51.168Z,89.24
2022-10-26T22:11:20.810Z,90.06
2022-10-26T22:13:49.478Z,88.86
2022-10-26T22:16:26.108Z,90.52
2022-10-26T22:18:55.463Z,94.50
2022-10-26T22:21:25.436Z,94.66
2022-10-26T22:23:53.300Z,96.46
2022-10-26T22:26:25.159Z,97.52
2022-10-26T22:28:54.393Z,96.96
2022-10-26T22:31:24.961Z,95.21
2022-10-26T22:33:53.791Z,95.03
2022-10-26T22:36:21.779Z,94.23
2022-10-26T22:38:50.347Z,92.11
2022-10-26T22:41:18.944Z,93.29
2022-10-26T22:43:46.403Z,92.42
2022-10-26T22:46:19.642Z,87.70
2022-10-26T22:48:47.338Z,84.91
2022-10-26T22:51:17.774Z,84.68
2022-10-26T22:53:45.524Z,81.99
2022-10-26T22:56:13.917Z,83.22
2022-10-26T22:58:41.541Z,86.46
2022-10-26T23:01:13.980Z,84.52
2022-10-26T23:03:42.003Z,89.63
2022-10-26T23:06:12.084Z,91.42
2022-10-26T23:08:39.444Z,92.41
2022-10-26T23:11:10.293Z,92.19
2022-10-26T23:13:37.729Z,89.24
2022-10-26T23:16:07.108Z,84.99
2022-10-26T23:18:35.149Z,84.45
2022-10-26T23:21:03.432Z,80.35
2022-10-26T23:23:31.042Z,79.11
2022-10-26T23:26:03.079Z,78.71
2022-10-26T23:28:30.929Z,91.04
2022-10-26T23:30:58.717Z,93.12
2022-10-26T23:33:26.154Z,92.68
2022-10-26T23:35:53.650Z,91.29
2022-10-26T23:38:21.311Z,92.39
2022-10-26T23:40:52.641Z,91.60
2022-10-26T23:43:20.427Z,92.04
2022-10-26T23:45:48.277Z,91.10
2022-10-26T23:48:16.613Z,92.98
2022-10-26T23:50:45.111Z,89.04
2022-10-26T23:53:14.251Z,90.69
2022-10-26T23:55:43.200Z,92.74
2022-10-26T23:58:10.701Z,93.00
